Ocean Tomo — 3FID9 — position and weather

sailwx.info

Track history (hours):
 
Tides and Currents Weather Stations Pressure Air Temp Water Temp Dewpoint Dewpoint Depression Visibility Wind Speed Wind Dir Waves Ship Positions

Ocean Tomo

Last reported at 2017-May-27 13:09 UTC. Time now 2017-Jun-25 10:35 UTC.
Position N 01°58' E 102°15'.
Warning: this ship's position is 28 days out of date.

Length 190 m; draft 8.3 m.

Type: Ship. MMSI: 372951000.

Date/timePositionNaut miles runAvg speedWind from/ knotsBaromVisibWave heightAir tempDewpointWater temp
2017-May-27 13:09N 01°58' E 102°15'411.9
2017-May-27 12:49N 01°56' E 102°18'412.1
2017-May-27 12:30N 01°54' E 102°22'612.2
2017-May-27 12:00N 01°51' E 102°27'612.8
2017-May-27 11:30N 01°48' E 102°33'5414.3
2017-May-27 07:44N 01°19' E 103°18'313.8
2017-May-27 07:31N 01°17' E 103°21'713.1
2017-May-27 06:59N 01°14' E 103°27'612.8
2017-May-27 06:31N 01°13' E 103°33'613.0
2017-May-27 06:01N 01°11' E 103°39'612.2
2017-May-27 05:31N 01°09' E 103°45'714.6
2017-May-27 05:01N 01°12' E 103°51'612.7
2017-May-27 04:30N 01°15' E 103°57'2 2.9
2017-May-27 03:56N 01°17' E 103°57'0 0.0
2017-May-27 03:29N 01°17' E 103°57'0 0.0
2017-May-27 02:53N 01°17' E 103°57'0 0.0
2017-May-27 02:23N 01°17' E 103°57'0 0.1
2017-May-27 01:47N 01°17' E 103°57'0 0.0
2017-May-27 01:29N 01°17' E 103°57'0 0.1
2017-May-27 00:59N 01°17' E 103°57'0 0.0
2017-May-27 00:29N 01°17' E 103°57'0 0.1
2017-May-26 23:59N 01°17' E 103°57'0 0.0
2017-May-26 23:29N 01°17' E 103°57'0 0.0
2017-May-26 22:59N 01°17' E 103°57'0 0.0
2017-May-26 22:29N 01°17' E 103°57'0 0.0
2017-May-26 21:59N 01°17' E 103°57'0 0.0
2017-May-26 21:29N 01°17' E 103°57'0 0.0
2017-May-26 20:59N 01°17' E 103°57'0 0.0
2017-May-26 20:29N 01°17' E 103°57'0 0.0
2017-May-26 19:56N 01°17' E 103°57'0 0.0
2017-May-26 19:29N 01°17' E 103°57'0 0.0
2017-May-26 18:59N 01°17' E 103°57'1 1.7
2017-May-26 18:30N 01°16' E 103°58'1 1.9
2017-May-26 18:00N 01°16' E 103°58'4 7.2
2017-May-26 17:30N 01°16' E 104°02'611.5
2017-May-26 16:59N 01°17' E 104°08'1212.0
2017-May-26 15:57N 01°19' E 104°20'  
2017-May-19 19:03N 31°01' E 122°51'112.2
2017-May-19 18:57N 31°01' E 122°49'612.2
2017-May-19 18:30N 31°05' E 122°44'612.2
2017-May-19 18:00N 31°05' E 122°37'510.4
2017-May-19 17:30N 31°05' E 122°31'4 7.4
2017-May-19 17:00N 31°05' E 122°27'510.6
2017-May-19 16:30N 31°06' E 122°21'612.9
2017-May-19 16:00N 31°09' E 122°14'714.5
2017-May-19 15:30N 31°13' E 122°07'714.8
2017-May-19 15:00N 31°15' E 121°59'1413.9
2017-May-19 14:01N 31°19' E 121°43'612.0
2017-May-19 13:31N 31°22' E 121°37'611.6
2017-May-19 13:00N 31°25' E 121°31'2 4.2
2017-May-19 12:31N 31°26' E 121°29'0 0.1
2017-May-19 11:58N 31°26' E 121°29'0 0.0
2017-May-19 11:25N 31°26' E 121°29'0 0.0
2017-May-19 10:58N 31°26' E 121°29'0 0.0
2017-May-19 10:28N 31°26' E 121°29'0 0.0
2017-May-19 09:58N 31°26' E 121°29'0 0.0
2017-May-19 09:28N 31°26' E 121°29'0 0.0
2017-May-19 08:58N 31°26' E 121°29'0 0.0
2017-May-19 08:28N 31°26' E 121°29'0 0.0
2017-May-19 07:58N 31°26' E 121°29'0 0.0
2017-May-19 07:25N 31°26' E 121°29'0 0.0
2017-May-19 06:58N 31°26' E 121°29'0 0.0
2017-May-19 06:28N 31°26' E 121°29'0 0.0
2017-May-19 05:58N 31°26' E 121°29'0 0.0
2017-May-19 05:28N 31°26' E 121°29'0 0.0
2017-May-19 04:58N 31°26' E 121°29'0 0.0
2017-May-19 04:28N 31°26' E 121°29'0 0.0
2017-May-19 03:58N 31°26' E 121°29'0 0.0
2017-May-19 03:28N 31°26' E 121°29'0 0.0
2017-May-19 02:58N 31°26' E 121°29'0 0.0
2017-May-19 02:28N 31°26' E 121°29'0 0.0
2017-May-19 01:58N 31°26' E 121°29'0 0.0
2017-May-19 01:28N 31°26' E 121°29'0 0.0
2017-May-19 00:58N 31°26' E 121°29'0 0.0
2017-May-19 00:28N 31°26' E 121°29'0 0.0
2017-May-18 23:55N 31°26' E 121°29'0 0.0
2017-May-18 23:28N 31°26' E 121°29'0 0.0
2017-May-18 22:58N 31°26' E 121°29'0 0.0
2017-May-18 22:25N 31°26' E 121°29'0 0.0
2017-May-18 21:58N 31°26' E 121°29'0 0.0
2017-May-18 21:25N 31°26' E 121°29'0 0.0
2017-May-18 20:58N 31°26' E 121°29'0 0.0
2017-May-18 20:29N 31°26' E 121°29'0 0.0
2017-May-18 19:58N 31°26' E 121°29'0 0.0
2017-May-18 19:28N 31°26' E 121°29'0 0.0
2017-May-18 18:58N 31°26' E 121°29'0 0.0
2017-May-18 18:25N 31°26' E 121°29'0 0.0
2017-May-18 17:52N 31°26' E 121°29'0 0.0
2017-May-18 17:28N 31°26' E 121°29'0 0.0
2017-May-18 16:55N 31°26' E 121°29'0 0.0
2017-May-18 16:16N 31°26' E 121°29'0 0.0
2017-May-18 15:55N 31°26' E 121°29'0 0.0
2017-May-18 15:28N 31°26' E 121°29'0 0.0
2017-May-18 14:55N 31°26' E 121°29'0 0.0
2017-May-18 13:52N 31°26' E 121°29'0 0.0
2017-May-18 13:28N 31°26' E 121°29'0 0.0
2017-May-18 12:58N 31°26' E 121°29'0 0.0
2017-May-18 12:13N 31°26' E 121°29'0 0.0
2017-May-18 11:55N 31°26' E 121°29'0 0.0
2017-May-18 11:28N 31°26' E 121°29'0 0.0
2017-May-18 10:58N 31°26' E 121°29'0 0.0
2017-May-18 10:28N 31°26' E 121°29'0 0.8
2017-May-18 10:00N 31°25' E 121°29'4 7.1
2017-May-18 09:30N 31°24' E 121°33'5 9.6
2017-May-18 09:00N 31°22' E 121°38'5 9.3
2017-May-18 08:30N 31°19' E 121°42'611.6
2017-May-18 08:00N 31°15' E 121°47'713.4
2017-May-18 07:30N 31°10' E 121°52'612.7
2017-May-18 07:00N 31°06' E 121°58'612.0
2017-May-18 06:30N 31°04' E 122°05'611.4
2017-May-18 06:00N 31°03' E 122°11'4 7.5
2017-May-18 05:30N 31°03' E 122°16'5 9.6
2017-May-18 05:00N 31°02' E 122°21'4 8.1
2017-May-18 04:30N 31°01' E 122°26'611.3
2017-May-18 04:00N 30°60' E 122°32'3 5.6
2017-May-18 03:30N 30°59' E 122°35'4 7.5
2017-May-18 03:00N 30°59' E 122°40'3 6.7
2017-May-18 02:30N 30°59' E 122°44'2 1.9
2017-May-18 01:37N 30°60' E 122°46'0 0.0
2017-May-18 01:28N 30°60' E 122°46'0 0.0
2017-May-18 00:58N 30°60' E 122°46'0 0.1
2017-May-18 00:19N 30°60' E 122°46'0 0.0
2017-May-17 23:52N 30°60' E 122°46'0 0.0
2017-May-17 23:22N 30°60' E 122°46'0 0.0
2017-May-17 22:52N 30°60' E 122°46'0 0.0
2017-May-17 22:25N 30°60' E 122°46'0 0.0
2017-May-17 21:55N 30°60' E 122°46'0 0.0
2017-May-17 21:22N 30°60' E 122°46'0 0.1
2017-May-17 20:58N 30°60' E 122°46'0 0.0
2017-May-17 20:28N 30°60' E 122°46'0 0.0
2017-May-17 19:58N 30°60' E 122°46'0 0.1
2017-May-17 19:28N 30°60' E 122°46'0 0.0
2017-May-17 18:58N 30°60' E 122°46'0 0.1
2017-May-17 18:13N 30°60' E 122°45'0 0.0
2017-May-17 17:55N 30°60' E 122°45'0 0.0
2017-May-17 17:10N 30°60' E 122°45'0 0.0
2017-May-17 16:58N 30°60' E 122°45'0 0.0
2017-May-17 16:13N 30°60' E 122°45'0 0.0
2017-May-17 15:43N 30°60' E 122°45'0 0.0
2017-May-17 15:28N 30°60' E 122°45'0 0.1
2017-May-17 14:49N 30°60' E 122°45'0 0.1
2017-May-17 14:25N 30°60' E 122°45'0 0.1
2017-May-17 13:28N 30°60' E 122°46'  
Track history (hours):
 
Tides and Currents Weather Stations Pressure Air Temp Water Temp Dewpoint Dewpoint Depression Visibility Wind Speed Wind Dir Waves Ship Positions

Ocean Tomo

Last reported at 2017-May-27 13:09 UTC. Time now 2017-Jun-25 10:35 UTC.
Position N 01°58' E 102°15'.
Warning: this ship's position is 28 days out of date.

Length 190 m; draft 8.3 m.

Type: Ship. MMSI: 372951000.

Date/timePositionNaut miles runAvg speedWind from/ knotsBaromVisibWave heightAir tempDewpointWater temp
2017-May-27 13:09N 01°58' E 102°15'411.9
2017-May-27 12:49N 01°56' E 102°18'412.1
2017-May-27 12:30N 01°54' E 102°22'612.2
2017-May-27 12:00N 01°51' E 102°27'612.8
2017-May-27 11:30N 01°48' E 102°33'5414.3
2017-May-27 07:44N 01°19' E 103°18'313.8
2017-May-27 07:31N 01°17' E 103°21'713.1
2017-May-27 06:59N 01°14' E 103°27'612.8
2017-May-27 06:31N 01°13' E 103°33'613.0
2017-May-27 06:01N 01°11' E 103°39'612.2
2017-May-27 05:31N 01°09' E 103°45'714.6
2017-May-27 05:01N 01°12' E 103°51'612.7
2017-May-27 04:30N 01°15' E 103°57'2 2.9
2017-May-27 03:56N 01°17' E 103°57'0 0.0
2017-May-27 03:29N 01°17' E 103°57'0 0.0
2017-May-27 02:53N 01°17' E 103°57'0 0.0
2017-May-27 02:23N 01°17' E 103°57'0 0.1
2017-May-27 01:47N 01°17' E 103°57'0 0.0
2017-May-27 01:29N 01°17' E 103°57'0 0.1
2017-May-27 00:59N 01°17' E 103°57'0 0.0
2017-May-27 00:29N 01°17' E 103°57'0 0.1
2017-May-26 23:59N 01°17' E 103°57'0 0.0
2017-May-26 23:29N 01°17' E 103°57'0 0.0
2017-May-26 22:59N 01°17' E 103°57'0 0.0
2017-May-26 22:29N 01°17' E 103°57'0 0.0
2017-May-26 21:59N 01°17' E 103°57'0 0.0
2017-May-26 21:29N 01°17' E 103°57'0 0.0
2017-May-26 20:59N 01°17' E 103°57'0 0.0
2017-May-26 20:29N 01°17' E 103°57'0 0.0
2017-May-26 19:56N 01°17' E 103°57'0 0.0
2017-May-26 19:29N 01°17' E 103°57'0 0.0
2017-May-26 18:59N 01°17' E 103°57'1 1.7
2017-May-26 18:30N 01°16' E 103°58'1 1.9
2017-May-26 18:00N 01°16' E 103°58'4 7.2
2017-May-26 17:30N 01°16' E 104°02'611.5
2017-May-26 16:59N 01°17' E 104°08'1212.0
2017-May-26 15:57N 01°19' E 104°20'  
2017-May-19 19:03N 31°01' E 122°51'112.2
2017-May-19 18:57N 31°01' E 122°49'612.2
2017-May-19 18:30N 31°05' E 122°44'612.2
2017-May-19 18:00N 31°05' E 122°37'510.4
2017-May-19 17:30N 31°05' E 122°31'4 7.4
2017-May-19 17:00N 31°05' E 122°27'510.6
2017-May-19 16:30N 31°06' E 122°21'612.9
2017-May-19 16:00N 31°09' E 122°14'714.5
2017-May-19 15:30N 31°13' E 122°07'714.8
2017-May-19 15:00N 31°15' E 121°59'1413.9
2017-May-19 14:01N 31°19' E 121°43'612.0
2017-May-19 13:31N 31°22' E 121°37'611.6
2017-May-19 13:00N 31°25' E 121°31'2 4.2
2017-May-19 12:31N 31°26' E 121°29'0 0.1
2017-May-19 11:58N 31°26' E 121°29'0 0.0
2017-May-19 11:25N 31°26' E 121°29'0 0.0
2017-May-19 10:58N 31°26' E 121°29'0 0.0
2017-May-19 10:28N 31°26' E 121°29'0 0.0
2017-May-19 09:58N 31°26' E 121°29'0 0.0
2017-May-19 09:28N 31°26' E 121°29'0 0.0
2017-May-19 08:58N 31°26' E 121°29'0 0.0
2017-May-19 08:28N 31°26' E 121°29'0 0.0
2017-May-19 07:58N 31°26' E 121°29'0 0.0
2017-May-19 07:25N 31°26' E 121°29'0 0.0
2017-May-19 06:58N 31°26' E 121°29'0 0.0
2017-May-19 06:28N 31°26' E 121°29'0 0.0
2017-May-19 05:58N 31°26' E 121°29'0 0.0
2017-May-19 05:28N 31°26' E 121°29'0 0.0
2017-May-19 04:58N 31°26' E 121°29'0 0.0
2017-May-19 04:28N 31°26' E 121°29'0 0.0
2017-May-19 03:58N 31°26' E 121°29'0 0.0
2017-May-19 03:28N 31°26' E 121°29'0 0.0
2017-May-19 02:58N 31°26' E 121°29'0 0.0
2017-May-19 02:28N 31°26' E 121°29'0 0.0
2017-May-19 01:58N 31°26' E 121°29'0 0.0
2017-May-19 01:28N 31°26' E 121°29'0 0.0
2017-May-19 00:58N 31°26' E 121°29'0 0.0
2017-May-19 00:28N 31°26' E 121°29'0 0.0
2017-May-18 23:55N 31°26' E 121°29'0 0.0
2017-May-18 23:28N 31°26' E 121°29'0 0.0
2017-May-18 22:58N 31°26' E 121°29'0 0.0
2017-May-18 22:25N 31°26' E 121°29'0 0.0
2017-May-18 21:58N 31°26' E 121°29'0 0.0
2017-May-18 21:25N 31°26' E 121°29'0 0.0
2017-May-18 20:58N 31°26' E 121°29'0 0.0
2017-May-18 20:29N 31°26' E 121°29'0 0.0
2017-May-18 19:58N 31°26' E 121°29'0 0.0
2017-May-18 19:28N 31°26' E 121°29'0 0.0
2017-May-18 18:58N 31°26' E 121°29'0 0.0
2017-May-18 18:25N 31°26' E 121°29'0 0.0
2017-May-18 17:52N 31°26' E 121°29'0 0.0
2017-May-18 17:28N 31°26' E 121°29'0 0.0
2017-May-18 16:55N 31°26' E 121°29'0 0.0
2017-May-18 16:16N 31°26' E 121°29'0 0.0
2017-May-18 15:55N 31°26' E 121°29'0 0.0
2017-May-18 15:28N 31°26' E 121°29'0 0.0
2017-May-18 14:55N 31°26' E 121°29'0 0.0
2017-May-18 13:52N 31°26' E 121°29'0 0.0
2017-May-18 13:28N 31°26' E 121°29'0 0.0
2017-May-18 12:58N 31°26' E 121°29'0 0.0
2017-May-18 12:13N 31°26' E 121°29'0 0.0
2017-May-18 11:55N 31°26' E 121°29'0 0.0
2017-May-18 11:28N 31°26' E 121°29'0 0.0
2017-May-18 10:58N 31°26' E 121°29'0 0.0
2017-May-18 10:28N 31°26' E 121°29'0 0.8
2017-May-18 10:00N 31°25' E 121°29'4 7.1
2017-May-18 09:30N 31°24' E 121°33'5 9.6
2017-May-18 09:00N 31°22' E 121°38'5 9.3
2017-May-18 08:30N 31°19' E 121°42'611.6
2017-May-18 08:00N 31°15' E 121°47'713.4
2017-May-18 07:30N 31°10' E 121°52'612.7
2017-May-18 07:00N 31°06' E 121°58'612.0
2017-May-18 06:30N 31°04' E 122°05'611.4
2017-May-18 06:00N 31°03' E 122°11'4 7.5
2017-May-18 05:30N 31°03' E 122°16'5 9.6
2017-May-18 05:00N 31°02' E 122°21'4 8.1
2017-May-18 04:30N 31°01' E 122°26'611.3
2017-May-18 04:00N 30°60' E 122°32'3 5.6
2017-May-18 03:30N 30°59' E 122°35'4 7.5
2017-May-18 03:00N 30°59' E 122°40'3 6.7
2017-May-18 02:30N 30°59' E 122°44'2 1.9
2017-May-18 01:37N 30°60' E 122°46'0 0.0
2017-May-18 01:28N 30°60' E 122°46'0 0.0
2017-May-18 00:58N 30°60' E 122°46'0 0.1
2017-May-18 00:19N 30°60' E 122°46'0 0.0
2017-May-17 23:52N 30°60' E 122°46'0 0.0
2017-May-17 23:22N 30°60' E 122°46'0 0.0
2017-May-17 22:52N 30°60' E 122°46'0 0.0
2017-May-17 22:25N 30°60' E 122°46'0 0.0
2017-May-17 21:55N 30°60' E 122°46'0 0.0
2017-May-17 21:22N 30°60' E 122°46'0 0.1
2017-May-17 20:58N 30°60' E 122°46'0 0.0
2017-May-17 20:28N 30°60' E 122°46'0 0.0
2017-May-17 19:58N 30°60' E 122°46'0 0.1
2017-May-17 19:28N 30°60' E 122°46'0 0.0
2017-May-17 18:58N 30°60' E 122°46'0 0.1
2017-May-17 18:13N 30°60' E 122°45'0 0.0
2017-May-17 17:55N 30°60' E 122°45'0 0.0
2017-May-17 17:10N 30°60' E 122°45'0 0.0
2017-May-17 16:58N 30°60' E 122°45'0 0.0
2017-May-17 16:13N 30°60' E 122°45'0 0.0
2017-May-17 15:43N 30°60' E 122°45'0 0.0
2017-May-17 15:28N 30°60' E 122°45'0 0.1
2017-May-17 14:49N 30°60' E 122°45'0 0.1
2017-May-17 14:25N 30°60' E 122°45'0 0.1
2017-May-17 13:28N 30°60' E 122°46'  

Dump ship's entire track history